Estación Meteorológica Peña el Pijo (Robertgarden) [ 11/20/17 01:25:00 CET ]

Fecha Hora Presion(HPa) Temp (°C) Humedad % Rocio (°C) Viento ( m/s) Direccion Lluvia 1Hora(mm) Lluvia 24H(mm) LLuvia Total(mm)
2017-Nov-04 01:01:46 1005.800 12.4 67 6.4         1466.45
2017-Nov-04 02:05:11 1005.100 13.6 57 5.2         1466.45
2017-Nov-04 03:01:35 1004.400 13.1 57 4.7         1466.45
2017-Nov-04 04:01:36 1003.900 12.4 59 4.6         1466.45
2017-Nov-04 05:01:59 1004.200 8.9 66 2.9         1466.45
2017-Nov-04 06:01:49 1004.300 7.1 71 2.2         1466.45
2017-Nov-04 07:01:46 1004.500 6.3 75 2.2         1466.45
2017-Nov-04 08:02:04 1004.800 6.4 78 2.8         1466.45
2017-Nov-04 09:02:05 1005.500 8.3 78 4.7         1466.45
2017-Nov-04 10:01:36 1005.400 10.4 79 6.9         1466.45
2017-Nov-04 11:01:44 1006.200 12.1 68 6.3 0.6 WNW     1466.45
2017-Nov-04 12:01:43 1005.100 10.3 72 5.5         1466.45
2017-Nov-04 13:01:34 1004.300 13.6 66 7.3         1466.45
2017-Nov-04 14:01:39 1003.700 15.9 58 7.7         1466.45
2017-Nov-04 15:01:28 1003.500 15.6 49 4.9         1466.45
2017-Nov-04 16:01:34 1004.000 14.9 53 5.4         1466.45
2017-Nov-04 17:01:48 1004.600 12.8 66 6.6         1466.45
2017-Nov-04 18:01:54 1004.800 11.3 68 5.6         1466.45
2017-Nov-04 19:01:36 1005.600 11.0 72 6.2         1466.45
2017-Nov-04 20:01:44 1006.000 10.1 77 6.2     0.51 0.51 1466.97
2017-Nov-04 21:01:50 1006.000 9.6 81 6.5       0.51 1466.97
2017-Nov-04 22:01:51 1006.300 9.5 82 6.5       0.51 1466.97
2017-Nov-04 23:01:36 1006.800 10.2 83 7.4       0.51 1466.97

Temperatura Máxima:15°    Temperatura Mínima:
Presión Máxima:1006.800 Hpa    Presión Mínima:1003.500 Hpa


Volver